Time;durP1;ratioP1;P1;durP2;ratioP2;P2;SDS_P1;SDS_P2;PMS_P1;PMS_P2;Temp;Humidity;BMP_temperature;BMP_pressure;BME280_temperature;BME280_humidity;BME280_pressure;Samples;Min_cycle;Max_cycle;Signal;HPM_P1;HPM_P2
2022/05/01 00:01:15;;;;;;;18.60;12.13;;;7.00;99.90;;;;;;4983731;28;20046;-83
2022/05/01 00:03:42;;;;;;;19.30;11.77;;;7.00;99.90;;;;;;5006041;28;20054;-83
2022/05/01 00:06:10;;;;;;;18.67;11.27;;;7.10;99.90;;;;;;4990763;28;20067;-82
2022/05/01 00:08:38;;;;;;;17.73;11.90;;;7.00;99.90;;;;;;5005546;28;20049;-85
2022/05/01 00:11:04;;;;;;;14.73;12.05;;;7.10;99.90;;;;;;5022692;28;20057;-82
2022/05/01 00:13:30;;;;;;;13.95;10.98;;;7.00;99.90;;;;;;4955238;28;20869;-83
2022/05/01 00:15:56;;;;;;;16.45;11.63;;;7.00;99.90;;;;;;4971095;28;20123;-82
2022/05/01 00:18:22;;;;;;;18.60;11.32;;;7.00;99.90;;;;;;4971311;28;20050;-81
2022/05/01 00:20:48;;;;;;;19.23;12.45;;;7.00;99.90;;;;;;4990328;28;20053;-82
2022/05/01 00:23:15;;;;;;;18.80;12.07;;;7.00;99.90;;;;;;5022684;28;20050;-81
2022/05/01 00:25:42;;;;;;;19.98;13.02;;;7.00;99.90;;;;;;5005658;28;20058;-81
2022/05/01 00:28:15;;;;;;;19.33;11.93;;;7.00;99.90;;;;;;5006123;28;20497;-82
2022/05/01 00:30:41;;;;;;;15.98;12.50;;;7.10;99.90;;;;;;4988064;28;20058;-81
2022/05/01 00:38:37;;;;;;;17.40;12.15;;;7.10;99.90;;;;;;5009609;28;20070;-84
2022/05/01 00:41:11;;;;;;;16.75;12.50;;;7.00;99.90;;;;;;4988771;28;20088;-82
2022/05/01 00:44:06;;;;;;;20.05;13.38;;;7.00;99.90;;;;;;5023981;28;20053;-84
2022/05/01 00:46:39;;;;;;;19.42;12.95;;;7.00;99.90;;;;;;4976088;28;20046;-81
2022/05/01 00:49:08;;;;;;;18.98;12.45;;;7.00;99.90;;;;;;4990518;28;20042;-81
2022/05/01 00:51:57;;;;;;;20.70;13.05;;;7.00;99.90;;;;;;5006139;28;20116;-82
2022/05/01 00:54:25;;;;;;;17.02;12.65;;;7.00;99.90;;;;;;4990249;28;20042;-81
2022/05/01 00:56:53;;;;;;;18.50;12.63;;;7.00;99.90;;;;;;4988727;28;20501;-82
2022/05/01 00:59:19;;;;;;;18.17;13.35;;;6.90;99.90;;;;;;4977311;28;20038;-82
2022/05/01 01:01:47;;;;;;;18.50;12.90;;;6.90;99.90;;;;;;5017605;28;20069;-81
2022/05/01 01:04:13;;;;;;;20.52;13.57;;;6.80;99.90;;;;;;5006172;28;20050;-82
2022/05/01 01:06:40;;;;;;;18.95;13.88;;;6.80;99.90;;;;;;4976363;28;20161;-87
2022/05/01 01:09:06;;;;;;;18.02;13.48;;;6.80;99.90;;;;;;4965428;28;20046;-81
2022/05/01 01:11:33;;;;;;;21.05;13.65;;;6.70;99.90;;;;;;4992717;28;20789;-82
2022/05/01 01:13:59;;;;;;;18.77;13.70;;;6.60;99.90;;;;;;4977806;28;20050;-81
2022/05/01 01:16:25;;;;;;;17.88;13.10;;;6.60;99.90;;;;;;4991836;28;20049;-82
2022/05/01 01:18:51;;;;;;;18.85;13.95;;;6.60;99.90;;;;;;4971988;28;20050;-82
2022/05/01 01:21:18;;;;;;;17.33;13.05;;;6.60;99.90;;;;;;4991257;28;20050;-81
2022/05/01 01:23:44;;;;;;;21.70;14.77;;;6.60;99.90;;;;;;5007578;28;20128;-82
2022/05/01 01:26:13;;;;;;;18.02;12.85;;;6.60;99.90;;;;;;4992691;28;20041;-82
2022/05/01 01:28:40;;;;;;;19.73;13.13;;;6.50;99.90;;;;;;4991700;28;20061;-81
2022/05/01 01:33:57;;;;;;;16.90;12.57;;;6.60;99.90;;;;;;5008767;28;20054;-82
2022/05/01 01:36:26;;;;;;;19.15;13.25;;;6.50;99.90;;;;;;5026511;28;20495;-82
2022/05/01 01:38:51;;;;;;;17.08;12.60;;;6.50;99.90;;;;;;4992355;28;20038;-82
2022/05/01 01:41:31;;;;;;;20.60;14.02;;;6.40;99.90;;;;;;4975788;28;20057;-85
2022/05/01 01:43:58;;;;;;;17.92;13.50;;;6.40;99.90;;;;;;4976977;28;20049;-81
2022/05/01 01:46:24;;;;;;;19.10;13.63;;;6.30;99.90;;;;;;4977066;28;20049;-82
2022/05/01 01:48:51;;;;;;;20.52;15.10;;;6.20;99.90;;;;;;4993142;28;20488;-82
2022/05/01 01:51:17;;;;;;;26.38;15.73;;;6.20;99.90;;;;;;4987760;28;20038;-82
2022/05/01 01:53:43;;;;;;;23.77;16.40;;;6.00;99.90;;;;;;4976987;28;20075;-86
2022/05/01 01:56:09;;;;;;;23.73;16.45;;;5.90;99.90;;;;;;4974361;28;20405;-82
2022/05/01 01:58:36;;;;;;;23.35;16.65;;;5.90;99.90;;;;;;4990488;28;20033;-82
2022/05/01 02:01:04;;;;;;;22.08;16.08;;;5.80;99.90;;;;;;5006761;28;20042;-84
2022/05/01 02:03:31;;;;;;;23.42;16.38;;;5.90;99.90;;;;;;4992807;28;20054;-82
2022/05/01 02:05:57;;;;;;;22.38;16.50;;;5.90;99.90;;;;;;4991750;28;20407;-82
2022/05/01 02:08:22;;;;;;;22.75;16.20;;;6.00;99.90;;;;;;4989676;28;20046;-82
2022/05/01 02:10:48;;;;;;;24.65;16.70;;;6.00;99.90;;;;;;5021289;28;20549;-85
2022/05/01 02:13:15;;;;;;;22.58;16.23;;;6.00;99.90;;;;;;4989626;28;20528;-82
2022/05/01 02:15:41;;;;;;;23.50;16.58;;;5.90;99.90;;;;;;4992171;28;20085;-81
2022/05/01 02:18:07;;;;;;;22.80;16.65;;;5.90;99.90;;;;;;4990136;28;20184;-82
2022/05/01 02:23:20;;;;;;;23.15;15.98;;;5.80;99.90;;;;;;5007446;28;20054;-81
2022/05/01 02:25:46;;;;;;;21.98;16.55;;;5.70;99.90;;;;;;4986061;28;20038;-85
2022/05/01 02:28:12;;;;;;;23.42;16.50;;;5.70;99.90;;;;;;4988232;28;20065;-82
2022/05/01 02:30:38;;;;;;;22.33;16.33;;;5.50;99.90;;;;;;5005445;28;20623;-83
2022/05/01 02:33:06;;;;;;;23.08;16.67;;;5.40;99.90;;;;;;4990483;28;20042;-83
2022/05/01 02:35:32;;;;;;;27.70;17.13;;;5.30;99.90;;;;;;4977314;28;20085;-83
2022/05/01 02:37:59;;;;;;;26.52;17.38;;;5.20;99.90;;;;;;4975708;28;20103;-82
2022/05/01 02:40:25;;;;;;;29.95;17.70;;;5.20;99.90;;;;;;4991620;28;20069;-84
2022/05/01 02:42:52;;;;;;;26.63;18.63;;;5.20;99.90;;;;;;4966353;28;20593;-82
2022/05/01 02:45:17;;;;;;;27.92;19.10;;;5.10;99.90;;;;;;5025840;28;20050;-82
2022/05/01 02:47:43;;;;;;;31.80;19.58;;;5.00;99.90;;;;;;4971742;28;20120;-83
2022/05/01 02:50:10;;;;;;;34.25;19.52;;;5.00;99.90;;;;;;4990863;28;20052;-82
2022/05/01 02:52:36;;;;;;;31.10;19.48;;;5.00;99.90;;;;;;5023138;28;20393;-82
2022/05/01 02:55:02;;;;;;;27.73;19.52;;;5.00;99.90;;;;;;4992924;28;20045;-81
2022/05/01 02:57:28;;;;;;;32.63;19.58;;;5.00;99.90;;;;;;4990847;28;20060;-81
2022/05/01 02:59:53;;;;;;;30.80;20.10;;;5.00;99.90;;;;;;5008462;28;20042;-82
2022/05/01 03:02:19;;;;;;;32.00;20.98;;;4.90;99.90;;;;;;4976053;28;20524;-81
2022/05/01 03:04:45;;;;;;;32.85;20.35;;;4.90;99.90;;;;;;4992207;28;20046;-82
2022/05/01 03:07:12;;;;;;;38.30;22.90;;;4.80;99.90;;;;;;4973209;28;20084;-81
2022/05/01 03:09:38;;;;;;;33.20;22.15;;;4.80;99.90;;;;;;5023047;28;20053;-82
2022/05/01 03:12:05;;;;;;;36.20;22.55;;;4.90;99.90;;;;;;4973476;28;20059;-84
2022/05/01 03:14:31;;;;;;;36.83;22.25;;;4.80;99.90;;;;;;4988501;28;20628;-83
2022/05/01 03:16:57;;;;;;;36.17;22.88;;;4.80;99.90;;;;;;4974594;28;20042;-84
2022/05/01 03:22:11;;;;;;;34.65;22.08;;;4.70;99.90;;;;;;5004950;28;20052;-85
2022/05/01 03:24:38;;;;;;;39.78;22.90;;;4.60;99.90;;;;;;4990880;28;20038;-82
2022/05/01 03:27:05;;;;;;;35.80;23.75;;;4.60;99.90;;;;;;4972828;28;20110;-83
2022/05/01 03:29:31;;;;;;;33.60;22.45;;;4.50;99.90;;;;;;4991073;28;20108;-81
2022/05/01 03:31:57;;;;;;;40.22;24.23;;;4.60;99.90;;;;;;4970774;28;20080;-81
2022/05/01 03:34:23;;;;;;;40.30;24.25;;;4.40;99.90;;;;;;4976499;28;20599;-81
2022/05/01 03:36:49;;;;;;;38.72;24.33;;;4.40;99.90;;;;;;4975055;28;20107;-84
2022/05/01 03:39:16;;;;;;;41.45;24.88;;;4.30;99.90;;;;;;4990192;28;20122;-81
2022/05/01 03:41:42;;;;;;;42.30;24.67;;;4.30;99.90;;;;;;4968552;28;20052;-81
2022/05/01 03:44:08;;;;;;;32.63;22.38;;;4.20;99.90;;;;;;5024717;28;20081;-82
2022/05/01 03:46:36;;;;;;;42.72;25.20;;;4.20;99.90;;;;;;4989080;28;20140;-82
2022/05/01 03:49:03;;;;;;;40.60;23.05;;;4.10;99.90;;;;;;5008255;28;20045;-81
2022/05/01 03:51:31;;;;;;;36.78;24.35;;;4.10;99.90;;;;;;4974973;28;20042;-81
2022/05/01 03:54:02;;;;;;;39.60;23.58;;;4.00;99.90;;;;;;4968847;28;20052;-81
2022/05/01 03:56:30;;;;;;;36.38;23.77;;;4.00;99.90;;;;;;5021942;28;20073;-83
2022/05/01 03:58:57;;;;;;;34.60;22.67;;;3.90;99.90;;;;;;4999095;28;20061;-81
2022/05/01 04:01:22;;;;;;;34.08;21.25;;;3.80;99.90;;;;;;5006331;28;20058;-81
2022/05/01 04:03:48;;;;;;;27.48;18.38;;;3.80;99.90;;;;;;4990526;28;20042;-81
2022/05/01 04:06:14;;;;;;;21.05;14.95;;;3.80;99.90;;;;;;4989043;28;20050;-84
2022/05/01 04:08:41;;;;;;;26.60;17.02;;;3.70;99.90;;;;;;4973312;28;20045;-82
2022/05/01 04:11:06;;;;;;;22.65;15.98;;;3.50;99.90;;;;;;5000597;28;20078;-80
2022/05/01 04:13:33;;;;;;;19.38;15.15;;;3.50;99.90;;;;;;4986625;28;20097;-82
2022/05/01 04:15:58;;;;;;;21.38;14.50;;;3.50;99.90;;;;;;4975326;28;20037;-81
2022/05/01 04:18:25;;;;;;;22.60;15.50;;;3.40;99.90;;;;;;5005930;28;20050;-83
2022/05/01 04:20:52;;;;;;;26.77;16.95;;;3.30;99.90;;;;;;4983049;28;20065;-85
2022/05/01 04:23:18;;;;;;;27.80;16.70;;;3.20;99.90;;;;;;4990488;28;20041;-81
2022/05/01 04:25:44;;;;;;;25.38;17.88;;;3.10;99.90;;;;;;4990687;28;20056;-83
2022/05/01 04:28:11;;;;;;;30.23;18.85;;;3.20;99.90;;;;;;4986982;28;20037;-82
2022/05/01 04:30:41;;;;;;;29.20;19.50;;;3.10;99.90;;;;;;4991311;28;20050;-81
2022/05/01 04:33:09;;;;;;;30.15;19.10;;;3.00;99.90;;;;;;4964449;28;20046;-81
2022/05/01 04:35:42;;;;;;;32.33;20.63;;;3.00;99.90;;;;;;4990639;28;20108;-83
2022/05/01 04:38:13;;;;;;;30.60;19.67;;;3.00;99.90;;;;;;4977495;28;20050;-82
2022/05/01 04:40:41;;;;;;;33.67;19.80;;;3.10;99.90;;;;;;5003198;28;20549;-81
2022/05/01 04:43:13;;;;;;;31.00;20.13;;;3.00;99.90;;;;;;4978489;28;20108;-82
2022/05/01 04:45:41;;;;;;;30.85;19.80;;;3.10;99.90;;;;;;4993284;28;20551;-86
2022/05/01 04:48:08;;;;;;;31.45;21.27;;;3.10;99.90;;;;;;5027077;28;20056;-82
2022/05/01 04:50:35;;;;;;;32.85;20.08;;;3.00;99.90;;;;;;5026680;28;20409;-82
2022/05/01 04:53:03;;;;;;;29.90;19.65;;;3.00;99.90;;;;;;5008452;28;20049;-82
2022/05/01 04:55:30;;;;;;;27.45;17.92;;;3.00;99.90;;;;;;4989243;28;20050;-78
2022/05/01 04:57:56;;;;;;;26.02;17.35;;;3.10;99.90;;;;;;5025718;28;20197;-87
2022/05/01 05:00:22;;;;;;;26.70;18.40;;;3.00;99.90;;;;;;4974585;28;20046;-80
2022/05/01 05:02:52;;;;;;;27.70;16.95;;;3.10;99.90;;;;;;4988099;28;20046;-81
2022/05/01 05:05:20;;;;;;;21.35;14.75;;;3.20;99.90;;;;;;4975823;28;20052;-79
2022/05/01 05:07:46;;;;;;;21.83;15.57;;;3.20;99.90;;;;;;4977816;28;20050;-79
2022/05/01 05:10:14;;;;;;;23.58;16.77;;;3.30;99.90;;;;;;5010828;28;20060;-81
2022/05/01 05:12:45;;;;;;;22.20;15.60;;;3.40;99.90;;;;;;4979297;28;20112;-81
2022/05/01 05:15:13;;;;;;;20.88;15.43;;;3.40;99.90;;;;;;4994414;28;20462;-80
2022/05/01 05:17:40;;;;;;;22.30;15.27;;;3.50;99.90;;;;;;4973301;28;20050;-83
2022/05/01 05:20:08;;;;;;;21.60;16.00;;;3.50;99.90;;;;;;5017768;28;20045;-82
2022/05/01 05:22:34;;;;;;;18.65;14.52;;;3.60;99.90;;;;;;4994940;28;20042;-82
2022/05/01 05:25:00;;;;;;;20.52;14.30;;;3.70;99.90;;;;;;4978558;28;20045;-80
2022/05/01 05:27:26;;;;;;;19.00;14.90;;;3.70;99.90;;;;;;4978336;28;20096;-80
2022/05/01 05:29:54;;;;;;;19.40;15.18;;;3.70;99.90;;;;;;4992494;28;20050;-83
2022/05/01 05:32:20;;;;;;;21.50;16.15;;;3.80;99.90;;;;;;5023078;28;20045;-81
2022/05/01 05:34:46;;;;;;;24.55;17.20;;;3.90;99.90;;;;;;4976308;28;20463;-82
2022/05/01 05:37:13;;;;;;;31.95;20.67;;;4.00;99.90;;;;;;4973831;28;20159;-82
2022/05/01 05:39:39;;;;;;;33.33;21.33;;;4.10;99.90;;;;;;4991912;28;20046;-83
2022/05/01 05:42:05;;;;;;;32.15;21.27;;;4.20;99.90;;;;;;5025169;28;20100;-83
2022/05/01 05:44:31;;;;;;;30.77;20.75;;;4.30;99.90;;;;;;4992373;28;20054;-82
2022/05/01 05:46:56;;;;;;;35.88;21.60;;;4.50;99.90;;;;;;4977514;28;20042;-85
2022/05/01 05:49:22;;;;;;;29.25;20.45;;;4.60;99.90;;;;;;4978034;28;20073;-81
2022/05/01 05:51:48;;;;;;;29.88;19.77;;;4.80;99.90;;;;;;4991133;28;20042;-81
2022/05/01 05:54:13;;;;;;;32.83;21.25;;;4.90;99.90;;;;;;4977530;28;20104;-81
2022/05/01 05:56:39;;;;;;;30.35;21.63;;;5.10;99.90;;;;;;4974613;28;20054;-81
2022/05/01 05:59:05;;;;;;;32.40;21.70;;;5.40;99.90;;;;;;5025458;28;20046;-82
2022/05/01 06:01:31;;;;;;;30.38;21.15;;;5.60;99.90;;;;;;4991871;28;21824;-81
2022/05/01 06:03:56;;;;;;;27.48;20.13;;;5.90;99.90;;;;;;4992632;28;20057;-83
2022/05/01 06:06:22;;;;;;;30.10;19.13;;;6.00;99.90;;;;;;4991813;28;20560;-80
2022/05/01 06:08:48;;;;;;;26.50;18.52;;;6.20;99.90;;;;;;4977111;28;20049;-80
2022/05/01 06:11:14;;;;;;;24.95;16.45;;;6.40;99.90;;;;;;4993336;28;20104;-81
2022/05/01 06:13:39;;;;;;;18.52;15.02;;;6.60;99.90;;;;;;4993576;28;20524;-80
2022/05/01 06:16:05;;;;;;;23.65;15.82;;;6.90;99.90;;;;;;4993300;28;20054;-82
2022/05/01 06:18:32;;;;;;;20.02;15.48;;;7.10;99.90;;;;;;4961495;28;20489;-80
2022/05/01 06:20:57;;;;;;;19.55;14.85;;;7.40;99.90;;;;;;4993775;28;20088;-81
2022/05/01 06:23:23;;;;;;;17.17;14.02;;;7.70;99.90;;;;;;4977201;28;20092;-81
2022/05/01 06:25:49;;;;;;;17.00;13.68;;;7.80;99.90;;;;;;4977610;28;20140;-80
2022/05/01 06:28:15;;;;;;;14.98;12.40;;;8.10;99.90;;;;;;4960925;28;20050;-80
2022/05/01 06:30:43;;;;;;;16.55;12.52;;;8.40;99.90;;;;;;4977387;28;20050;-80
2022/05/01 06:33:11;;;;;;;14.98;11.70;;;8.70;99.90;;;;;;4992919;28;20452;-80
2022/05/01 06:35:37;;;;;;;13.95;10.48;;;9.00;99.90;;;;;;4993647;28;20058;-81
2022/05/01 06:38:03;;;;;;;12.80;10.00;;;9.20;99.90;;;;;;5009164;28;20562;-81
2022/05/01 06:40:29;;;;;;;12.65;9.73;;;9.50;99.90;;;;;;5009475;28;20045;-81
2022/05/01 06:42:55;;;;;;;13.43;9.63;;;9.60;99.90;;;;;;5009702;28;20054;-80
2022/05/01 06:45:21;;;;;;;11.25;9.70;;;9.60;99.90;;;;;;4976622;28;20045;-80
2022/05/01 06:47:47;;;;;;;10.07;9.00;;;9.60;99.90;;;;;;5009582;28;20057;-80
2022/05/01 06:50:13;;;;;;;16.00;9.80;;;9.70;99.90;;;;;;4976621;28;20230;-80
2022/05/01 06:52:38;;;;;;;12.07;8.23;;;9.70;99.90;;;;;;5009405;28;20060;-80
2022/05/01 06:55:04;;;;;;;11.65;7.82;;;9.60;99.90;;;;;;4976458;28;20089;-81
2022/05/01 06:57:30;;;;;;;7.40;6.30;;;9.60;99.90;;;;;;5009491;28;20135;-80
2022/05/01 06:59:56;;;;;;;8.50;5.43;;;9.70;99.90;;;;;;5009002;28;20508;-80
2022/05/01 07:02:21;;;;;;;5.70;4.65;;;9.70;99.90;;;;;;5008987;28;20128;-80
2022/05/01 07:04:48;;;;;;;8.82;4.35;;;9.80;99.90;;;;;;4976215;28;20045;-81
2022/05/01 07:07:13;;;;;;;7.25;4.70;;;9.80;99.90;;;;;;5008423;28;20049;-81
2022/05/01 07:09:39;;;;;;;5.35;4.38;;;9.90;99.90;;;;;;4976706;28;20049;-81
2022/05/01 07:12:10;;;;;;;7.15;4.43;;;9.90;99.90;;;;;;4975844;28;20050;-81
2022/05/01 07:14:37;;;;;;;6.68;5.28;;;10.00;99.90;;;;;;5009331;28;20400;-80
2022/05/01 07:17:03;;;;;;;6.95;5.63;;;10.10;99.90;;;;;;4976404;28;20655;-84
2022/05/01 07:19:29;;;;;;;8.50;5.85;;;10.20;99.90;;;;;;5008196;28;20219;-80
2022/05/01 07:21:54;;;;;;;8.75;7.15;;;10.30;99.90;;;;;;4976453;28;20089;-80
2022/05/01 07:24:20;;;;;;;10.25;6.60;;;10.60;99.90;;;;;;5008545;28;20119;-81
2022/05/01 07:26:46;;;;;;;9.02;6.78;;;10.90;99.90;;;;;;4976047;28;20050;-82
2022/05/01 07:29:12;;;;;;;8.27;6.53;;;11.20;99.90;;;;;;4975739;28;20046;-80
2022/05/01 07:31:37;;;;;;;9.05;6.50;;;11.40;99.90;;;;;;4976419;28;20069;-81
2022/05/01 07:34:04;;;;;;;6.90;5.68;;;11.70;99.90;;;;;;4976252;28;20054;-83
2022/05/01 07:36:30;;;;;;;5.53;4.50;;;11.90;99.90;;;;;;5008599;28;20135;-80
2022/05/01 07:38:57;;;;;;;4.47;4.07;;;12.10;99.90;;;;;;5008622;28;20042;-80
2022/05/01 07:41:23;;;;;;;7.63;4.85;;;12.40;99.90;;;;;;5008051;28;20056;-81
2022/05/01 07:43:49;;;;;;;8.43;5.80;;;12.60;99.90;;;;;;4976355;28;20045;-80
2022/05/01 07:46:14;;;;;;;7.32;6.00;;;12.70;99.90;;;;;;5008056;28;20457;-80
2022/05/01 07:48:41;;;;;;;8.40;6.32;;;12.80;99.90;;;;;;4976293;28;20080;-80
2022/05/01 07:51:07;;;;;;;7.53;6.13;;;12.90;99.90;;;;;;4975513;28;20053;-83
2022/05/01 07:53:34;;;;;;;6.95;5.93;;;12.80;99.10;;;;;;5008539;28;20050;-81
2022/05/01 07:56:00;;;;;;;8.70;6.40;;;12.70;98.30;;;;;;5008425;28;20127;-81
2022/05/01 07:58:27;;;;;;;8.95;6.00;;;12.70;98.60;;;;;;5007898;28;20049;-82
2022/05/01 08:00:54;;;;;;;7.68;5.55;;;12.70;99.00;;;;;;5008633;28;20092;-83
2022/05/01 08:06:05;;;;;;;7.22;5.80;;;12.80;98.40;;;;;;5008513;28;20096;-84
2022/05/01 08:08:33;;;;;;;8.40;5.53;;;12.80;98.20;;;;;;4975492;28;20108;-81
2022/05/01 08:11:03;;;;;;;9.90;5.38;;;12.80;97.90;;;;;;5008532;28;20400;-81
2022/05/01 08:13:29;;;;;;;7.93;5.60;;;12.70;97.70;;;;;;5007300;28;20062;-81
2022/05/01 08:15:55;;;;;;;7.03;5.85;;;12.70;98.00;;;;;;4993467;28;20061;-81
2022/05/01 08:21:05;;;;;;;7.22;5.60;;;12.80;97.30;;;;;;5014917;28;20064;-81
2022/05/01 08:23:31;;;;;;;8.82;5.75;;;12.90;95.20;;;;;;4979089;28;20111;-81
2022/05/01 08:26:03;;;;;;;6.35;4.57;;;12.90;95.20;;;;;;5012244;28;20397;-80
2022/05/01 08:28:33;;;;;;;9.05;5.13;;;13.10;93.70;;;;;;4980011;28;20046;-81
2022/05/01 08:30:59;;;;;;;5.50;3.67;;;13.20;91.50;;;;;;4979775;28;20053;-81
2022/05/01 08:33:25;;;;;;;6.75;3.97;;;13.30;89.90;;;;;;5011587;28;20145;-80
2022/05/01 08:35:51;;;;;;;5.85;3.83;;;13.50;89.70;;;;;;4979527;28;20152;-81
2022/05/01 08:38:17;;;;;;;4.90;4.10;;;13.80;87.20;;;;;;5011295;28;20681;-81
2022/05/01 08:40:47;;;;;;;5.15;3.38;;;14.10;85.40;;;;;;5011963;28;20045;-81
2022/05/01 08:43:14;;;;;;;5.82;3.45;;;14.50;78.60;;;;;;4979029;28;20053;-80
2022/05/01 08:45:52;;;;;;;5.80;3.55;;;14.80;72.80;;;;;;5011940;28;20056;-81
2022/05/01 08:48:39;;;;;;;4.07;3.50;;;15.20;72.20;;;;;;5011208;28;20132;-82
2022/05/01 08:51:05;;;;;;;5.30;4.35;;;15.80;72.00;;;;;;5011329;28;20050;-82
2022/05/01 08:53:32;;;;;;;6.15;3.97;;;16.30;67.50;;;;;;5011256;28;20049;-80
2022/05/01 08:56:01;;;;;;;5.00;4.40;;;16.80;66.50;;;;;;4995324;28;20372;-82
2022/05/01 08:58:30;;;;;;;7.80;4.85;;;17.30;63.80;;;;;;4978505;28;20057;-82
2022/05/01 09:00:58;;;;;;;7.63;4.78;;;17.50;61.90;;;;;;5011346;28;20489;-81
2022/05/01 09:03:25;;;;;;;5.88;4.78;;;17.50;60.00;;;;;;4979050;28;20053;-82
2022/05/01 09:05:51;;;;;;;5.78;4.35;;;17.50;59.90;;;;;;5011510;28;20049;-81
2022/05/01 09:08:17;;;;;;;8.50;4.82;;;17.50;59.50;;;;;;5010811;28;20038;-80
2022/05/01 09:10:43;;;;;;;5.70;4.57;;;17.60;59.40;;;;;;5011565;28;20833;-81
2022/05/01 09:13:09;;;;;;;6.25;4.25;;;17.50;58.00;;;;;;4978317;28;20153;-82
2022/05/01 09:15:37;;;;;;;5.50;4.00;;;17.40;57.40;;;;;;5010410;28;20485;-81
2022/05/01 09:18:05;;;;;;;6.63;4.63;;;17.10;58.40;;;;;;5011212;28;20136;-82
2022/05/01 09:20:32;;;;;;;5.18;4.45;;;16.80;58.30;;;;;;5010757;28;20642;-80
2022/05/01 09:22:59;;;;;;;8.88;5.85;;;16.50;58.70;;;;;;5011130;28;20093;-80
2022/05/01 09:25:27;;;;;;;5.93;4.63;;;16.10;59.50;;;;;;5010657;28;20148;-81
2022/05/01 09:27:57;;;;;;;5.72;4.28;;;15.70;60.10;;;;;;5010726;28;20046;-81
2022/05/01 09:30:38;;;;;;;5.10;4.55;;;15.30;61.20;;;;;;5010630;28;20117;-80
2022/05/01 09:33:04;;;;;;;5.57;4.47;;;15.30;60.30;;;;;;5011105;28;20057;-82
2022/05/01 09:35:35;;;;;;;6.88;4.93;;;15.00;62.10;;;;;;5010104;28;20625;-80
2022/05/01 09:38:25;;;;;;;5.65;4.20;;;15.00;63.00;;;;;;5010366;28;20060;-81
2022/05/01 09:40:56;;;;;;;7.07;4.40;;;15.20;63.30;;;;;;5010868;28;20115;-81
2022/05/01 09:43:44;;;;;;;5.38;4.13;;;15.30;62.90;;;;;;5010380;28;20053;-81
2022/05/01 09:46:24;;;;;;;5.55;4.75;;;15.40;60.70;;;;;;5010647;28;20054;-82
2022/05/01 09:49:12;;;;;;;6.55;4.60;;;15.50;61.30;;;;;;5010653;28;20131;-81
2022/05/01 09:51:41;;;;;;;6.57;3.88;;;15.90;61.60;;;;;;5010435;28;20054;-82
2022/05/01 09:54:07;;;;;;;5.15;3.88;;;16.20;59.30;;;;;;4978531;28;20050;-83
2022/05/01 09:56:46;;;;;;;6.68;4.00;;;16.50;58.70;;;;;;5010197;28;20050;-81
2022/05/01 09:59:13;;;;;;;5.07;4.28;;;16.60;57.20;;;;;;5010057;28;20472;-85
2022/05/01 10:01:40;;;;;;;6.43;4.97;;;16.60;57.20;;;;;;5010402;28;20069;-81
2022/05/01 10:04:06;;;;;;;6.68;5.10;;;16.60;57.10;;;;;;5010430;28;20054;-81
2022/05/01 10:06:32;;;;;;;5.10;3.92;;;17.00;57.40;;;;;;5009823;28;20062;-80
2022/05/01 10:09:01;;;;;;;4.85;4.00;;;17.10;55.20;;;;;;5010275;28;20580;-81
2022/05/01 10:11:28;;;;;;;4.85;3.65;;;17.50;54.40;;;;;;4977517;28;20585;-81
2022/05/01 10:13:55;;;;;;;5.15;4.07;;;18.00;53.90;;;;;;5009728;28;20057;-81
2022/05/01 10:16:21;;;;;;;6.50;4.35;;;18.70;51.70;;;;;;5009742;28;20520;-81
2022/05/01 10:18:48;;;;;;;5.78;3.90;;;19.20;50.70;;;;;;4993678;28;20135;-83
2022/05/01 10:21:13;;;;;;;9.25;4.60;;;19.40;50.00;;;;;;5009917;28;20050;-83
2022/05/01 10:23:40;;;;;;;8.32;4.18;;;20.00;48.90;;;;;;5009413;28;20056;-83
2022/05/01 10:26:24;;;;;;;4.20;3.53;;;20.50;47.50;;;;;;4977640;28;20049;-82
2022/05/01 10:29:23;;;;;;;5.18;3.42;;;21.10;46.30;;;;;;5009547;28;20060;-81
2022/05/01 10:32:23;;;;;;;6.35;3.65;;;21.50;45.60;;;;;;5009994;28;20042;-82
2022/05/01 10:35:24;;;;;;;8.10;3.40;;;21.60;45.20;;;;;;5009855;28;20101;-82
2022/05/01 10:38:14;;;;;;;5.07;3.28;;;21.50;43.60;;;;;;5006501;28;20464;-82
2022/05/01 10:40:49;;;;;;;4.88;3.47;;;21.40;42.20;;;;;;5009342;28;20053;-81
2022/05/01 10:43:38;;;;;;;4.15;3.08;;;21.30;41.20;;;;;;5009535;28;20046;-83
2022/05/01 10:46:16;;;;;;;3.92;2.67;;;20.90;41.70;;;;;;5009732;28;20141;-81
2022/05/01 10:48:42;;;;;;;4.57;2.97;;;21.30;42.40;;;;;;5009561;28;20058;-82
2022/05/01 10:51:31;;;;;;;3.33;2.88;;;21.60;40.20;;;;;;5009195;28;20054;-82
2022/05/01 10:54:15;;;;;;;6.20;3.05;;;21.60;37.10;;;;;;5009491;28;20432;-80
2022/05/01 10:56:48;;;;;;;5.72;2.88;;;21.30;35.50;;;;;;5009239;28;20092;-80
2022/05/01 10:59:30;;;;;;;6.95;3.08;;;20.70;38.90;;;;;;5009238;28;20050;-82
2022/05/01 11:02:00;;;;;;;3.75;2.58;;;20.90;38.50;;;;;;5009362;28;20530;-80
2022/05/01 11:04:36;;;;;;;4.15;2.92;;;21.20;38.50;;;;;;5009006;28;20393;-80
2022/05/01 11:07:04;;;;;;;4.15;2.97;;;21.70;38.00;;;;;;5009532;28;20057;-79
2022/05/01 11:09:34;;;;;;;5.28;2.78;;;22.10;36.90;;;;;;5008776;28;20046;-80
2022/05/01 11:12:01;;;;;;;6.43;2.60;;;22.60;36.40;;;;;;4992815;28;20054;-79
2022/05/01 11:14:51;;;;;;;4.75;3.13;;;22.80;35.30;;;;;;4976343;28;20053;-80
2022/05/01 11:17:36;;;;;;;4.10;2.75;;;23.00;35.40;;;;;;5008848;28;20046;-81
2022/05/01 11:20:25;;;;;;;3.58;2.65;;;23.60;35.30;;;;;;5008935;28;20045;-79
2022/05/01 11:22:51;;;;;;;4.00;2.80;;;24.10;33.70;;;;;;4992241;28;20053;-79
2022/05/01 11:25:18;;;;;;;4.75;3.00;;;24.20;34.60;;;;;;5008800;28;20132;-84
2022/05/01 11:27:52;;;;;;;6.05;2.80;;;24.30;33.60;;;;;;4976463;28;20057;-80
2022/05/01 11:30:26;;;;;;;3.05;2.60;;;24.30;33.20;;;;;;5007010;28;20084;-82
2022/05/01 11:33:06;;;;;;;3.55;2.88;;;24.00;32.70;;;;;;5007557;28;20049;-80
2022/05/01 11:35:56;;;;;;;6.13;3.03;;;23.50;30.90;;;;;;5008178;28;20067;-79
2022/05/01 11:38:24;;;;;;;3.63;2.40;;;22.40;31.70;;;;;;5008228;28;20049;-79
2022/05/01 11:40:59;;;;;;;5.43;3.20;;;21.40;35.60;;;;;;5008871;28;20133;-80
2022/05/01 11:43:28;;;;;;;5.72;2.80;;;21.00;36.60;;;;;;4975452;28;20046;-80
2022/05/01 11:45:58;;;;;;;4.13;3.30;;;21.00;37.30;;;;;;5008796;28;20088;-81
2022/05/01 11:48:25;;;;;;;4.25;2.90;;;21.20;37.20;;;;;;5008351;28;20058;-80
2022/05/01 11:50:53;;;;;;;3.20;2.70;;;21.50;36.20;;;;;;4976136;28;20057;-80
2022/05/01 11:53:24;;;;;;;4.60;2.80;;;21.10;35.10;;;;;;5008535;28;20057;-83
2022/05/01 12:04:28;;;;;;;4.05;3.05;;;21.20;37.20;;;;;;5010925;28;20057;-80
2022/05/01 12:07:04;;;;;;;3.22;2.70;;;21.10;35.70;;;;;;5008533;28;20516;-80
2022/05/01 12:09:31;;;;;;;4.78;3.10;;;20.60;36.90;;;;;;4991817;28;20046;-80
2022/05/01 12:11:57;;;;;;;5.15;3.13;;;20.10;37.00;;;;;;5008132;28;20045;-80
2022/05/01 12:14:23;;;;;;;3.95;2.83;;;19.60;38.60;;;;;;5007911;28;20058;-83
2022/05/01 12:16:49;;;;;;;4.35;3.03;;;19.00;38.90;;;;;;5008385;28;20057;-80
2022/05/01 12:19:16;;;;;;;3.78;3.00;;;18.60;39.70;;;;;;4975519;28;20056;-81
2022/05/01 12:21:41;;;;;;;4.03;3.20;;;18.20;40.20;;;;;;4975281;28;20254;-79
2022/05/01 12:24:09;;;;;;;4.35;2.85;;;17.70;41.30;;;;;;5008003;28;20695;-80
2022/05/01 12:26:49;;;;;;;4.57;2.72;;;17.40;42.20;;;;;;4975108;28;20046;-80
2022/05/01 12:29:15;;;;;;;4.38;2.67;;;17.00;43.00;;;;;;5008139;28;20374;-80
2022/05/01 12:32:01;;;;;;;6.32;3.33;;;16.70;43.50;;;;;;4974846;28;20085;-79
2022/05/01 12:34:32;;;;;;;3.67;2.80;;;16.60;43.50;;;;;;5007642;28;20057;-79
2022/05/01 12:37:04;;;;;;;5.20;3.10;;;16.30;44.30;;;;;;5008096;28;20060;-79
2022/05/01 12:39:31;;;;;;;4.55;3.30;;;16.20;44.50;;;;;;4991438;28;20164;-79
2022/05/01 12:45:11;;;;;;;3.88;2.90;;;16.00;45.00;;;;;;5008060;28;20061;-81
2022/05/01 12:47:42;;;;;;;5.32;3.20;;;16.00;45.00;;;;;;5007520;28;20391;-79
2022/05/01 12:50:28;;;;;;;4.78;3.30;;;16.00;45.00;;;;;;4991797;28;20390;-82
2022/05/01 12:53:00;;;;;;;3.88;3.40;;;16.00;45.50;;;;;;4991273;28;20682;-81
2022/05/01 12:55:31;;;;;;;4.50;3.40;;;15.90;46.00;;;;;;5007541;28;20053;-80
2022/05/01 12:57:59;;;;;;;4.57;3.38;;;15.80;47.00;;;;;;5007848;28;20123;-79
2022/05/01 13:00:38;;;;;;;4.25;3.33;;;15.70;47.00;;;;;;5007376;28;20481;-83
2022/05/01 13:03:28;;;;;;;6.88;3.30;;;15.60;47.10;;;;;;4979306;28;20503;-80
2022/05/01 13:05:55;;;;;;;4.57;2.97;;;15.50;47.90;;;;;;5011675;28;20076;-80
2022/05/01 13:08:21;;;;;;;6.05;3.40;;;15.60;47.60;;;;;;5011468;28;20056;-79
2022/05/01 13:11:08;;;;;;;4.63;3.17;;;15.50;47.80;;;;;;5011140;28;20084;-80
2022/05/01 13:13:53;;;;;;;6.97;3.47;;;15.70;47.30;;;;;;5010276;28;20115;-81
2022/05/01 13:16:44;;;;;;;4.28;3.30;;;15.80;47.30;;;;;;5011428;28;20057;-80
2022/05/01 13:19:27;;;;;;;4.75;3.00;;;15.90;47.40;;;;;;5005647;28;20118;-80
2022/05/01 13:21:53;;;;;;;5.93;3.40;;;16.20;46.90;;;;;;4995089;28;20053;-81
2022/05/01 13:24:31;;;;;;;4.10;3.20;;;16.30;47.00;;;;;;4978797;28;20053;-81